Time;durP1;ratioP1;P1;durP2;ratioP2;P2;SDS_P1;SDS_P2;PMS_P1;PMS_P2;Temp;Humidity;BMP_temperature;BMP_pressure;BME280_temperature;BME280_humidity;BME280_pressure;Samples;Min_cycle;Max_cycle;Signal;HPM_P1;HPM_P2
2024/01/20 00:01:23;;;;;;;0.00;0.00;;;;;;;-0.95;69.99;101655.34;15652344;28;20052;-51
2024/01/20 00:08:56;;;;;;;0.55;0.55;;;;;;;-0.82;69.75;101658.78;15662546;28;20359;-52
2024/01/20 00:16:31;;;;;;;0.05;0.05;;;;;;;-0.85;70.59;101661.63;15667767;28;20132;-50
2024/01/20 00:24:05;;;;;;;0.00;0.00;;;;;;;-0.64;69.40;101657.41;15664845;28;20497;-51
2024/01/20 00:31:40;;;;;;;0.00;0.00;;;;;;;-0.76;70.75;101674.13;15663051;28;20069;-55
2024/01/20 00:39:14;;;;;;;0.00;0.00;;;;;;;-0.87;69.88;101672.28;15663686;28;20056;-49
2024/01/20 00:46:49;;;;;;;0.20;0.20;;;;;;;-0.81;69.96;101682.38;15663886;28;20493;-51
2024/01/20 00:54:22;;;;;;;0.00;0.00;;;;;;;-0.80;70.36;101684.03;15660178;28;20047;-48
2024/01/20 01:01:58;;;;;;;0.00;0.00;;;;;;;-0.74;70.35;101703.03;15662494;28;20029;-51
2024/01/20 01:09:33;;;;;;;0.32;0.32;;;;;;;-0.80;70.33;101704.28;15714733;22;20056;-49
2024/01/20 01:17:10;;;;;;;0.00;0.00;;;;;;;-0.90;70.71;101721.75;15723007;28;20106;-45
2024/01/20 01:24:43;;;;;;;0.10;0.10;;;;;;;-0.93;70.31;101729.84;15728419;28;20147;-45
2024/01/20 01:32:19;;;;;;;0.00;0.00;;;;;;;-0.71;69.85;101735.25;15730836;28;20056;-46
2024/01/20 01:39:54;;;;;;;0.00;0.00;;;;;;;-0.96;70.68;101746.75;15732665;28;20140;-47
2024/01/20 01:47:35;;;;;;;0.00;0.00;;;;;;;-0.87;70.94;101740.81;15729680;28;20128;-47
2024/01/20 01:55:11;;;;;;;0.10;0.10;;;;;;;-0.91;71.03;101749.06;15738571;28;20048;-47
2024/01/20 02:02:49;;;;;;;0.00;0.00;;;;;;;-0.68;70.62;101748.22;15743661;28;20044;-46
2024/01/20 02:10:23;;;;;;;0.10;0.10;;;;;;;-0.85;71.38;101738.91;15740728;28;20044;-49
2024/01/20 02:17:58;;;;;;;0.08;0.08;;;;;;;-0.89;71.32;101711.06;15733996;28;20135;-50
2024/01/20 02:25:33;;;;;;;0.00;0.00;;;;;;;-0.61;71.35;101740.69;15739255;28;20049;-49
2024/01/20 02:33:06;;;;;;;0.00;0.00;;;;;;;-0.61;71.41;101748.59;15731989;28;20249;-46
2024/01/20 02:40:41;;;;;;;0.03;0.03;;;;;;;-0.45;70.46;101758.88;15738196;28;20033;-47
2024/01/20 02:48:15;;;;;;;0.08;0.08;;;;;;;-0.47;70.93;101748.41;15740523;28;20158;-46
2024/01/20 02:55:50;;;;;;;0.00;0.00;;;;;;;-0.44;71.04;101760.53;15739456;28;20041;-51
2024/01/20 03:03:26;;;;;;;0.00;0.00;;;;;;;-0.38;70.70;101757.44;15731226;28;20504;-47
2024/01/20 03:11:04;;;;;;;0.00;0.00;;;;;;;-0.34;71.15;101765.00;15736542;28;20052;-49
2024/01/20 03:18:37;;;;;;;0.00;0.00;;;;;;;-0.32;70.82;101768.41;15739156;28;20041;-48
2024/01/20 03:26:12;;;;;;;0.00;0.00;;;;;;;-0.47;71.86;101790.63;15737985;28;20386;-48
2024/01/20 03:33:47;;;;;;;0.00;0.00;;;;;;;-0.53;71.54;101796.34;15734337;28;20064;-46
2024/01/20 03:41:23;;;;;;;0.00;0.00;;;;;;;-0.43;71.68;101804.41;15732650;28;20098;-47
2024/01/20 03:48:56;;;;;;;0.00;0.00;;;;;;;-0.37;72.48;101810.09;15736122;28;20397;-48
2024/01/20 03:56:32;;;;;;;0.75;0.75;;;;;;;-0.17;71.03;101834.16;15733080;28;20052;-48
2024/01/20 04:04:06;;;;;;;0.03;0.03;;;;;;;-0.01;71.48;101832.91;15727114;28;20066;-46
2024/01/20 04:11:41;;;;;;;0.10;0.10;;;;;;;-0.24;71.33;101836.41;15734392;28;20098;-45
2024/01/20 04:19:15;;;;;;;0.10;0.10;;;;;;;-0.16;71.17;101830.56;15732822;28;20075;-47
2024/01/20 04:26:51;;;;;;;0.00;0.00;;;;;;;-0.17;71.03;101835.00;15731651;28;20040;-47
2024/01/20 04:34:27;;;;;;;0.90;0.82;;;;;;;-0.03;69.77;101837.47;15733833;28;20117;-45
2024/01/20 04:42:02;;;;;;;0.47;0.47;;;;;;;-0.31;70.65;101835.19;15733873;28;20181;-47
2024/01/20 04:49:38;;;;;;;0.05;0.05;;;;;;;-0.40;70.92;101839.34;15730829;28;20040;-45
2024/01/20 04:57:13;;;;;;;0.00;0.00;;;;;;;-0.47;72.22;101837.25;15729252;28;20056;-46
2024/01/20 05:04:46;;;;;;;0.13;0.13;;;;;;;-0.52;71.86;101809.41;15731791;28;20055;-47
2024/01/20 05:12:21;;;;;;;0.25;0.25;;;;;;;-0.43;72.93;101863.28;15734629;28;20556;-51
2024/01/20 05:19:54;;;;;;;0.00;0.00;;;;;;;-0.24;72.32;101860.16;15733780;28;20340;-48
2024/01/20 05:27:29;;;;;;;1.17;0.70;;;;;;;-0.16;72.12;101872.78;15729123;28;20623;-47
2024/01/20 05:35:03;;;;;;;0.40;0.40;;;;;;;-0.23;73.33;101888.25;15745360;28;20048;-47
2024/01/20 05:42:41;;;;;;;0.00;0.00;;;;;;;-0.27;73.18;101892.06;15742747;28;20097;-46
2024/01/20 05:50:14;;;;;;;0.00;0.00;;;;;;;-0.23;73.31;101890.88;15745099;28;20074;-48
2024/01/20 05:57:50;;;;;;;0.20;0.20;;;;;;;-0.19;73.65;101905.50;15744812;28;20401;-47
2024/01/20 06:05:23;;;;;;;0.05;0.05;;;;;;;-0.06;73.16;101906.28;15741435;28;20173;-49
2024/01/20 06:12:58;;;;;;;0.10;0.10;;;;;;;0.10;72.58;101910.47;15738849;28;20059;-50
2024/01/20 06:20:31;;;;;;;1.65;1.48;;;;;;;0.36;72.31;101914.63;15741328;28;20072;-49
2024/01/20 06:28:06;;;;;;;0.28;0.28;;;;;;;0.11;73.11;101912.97;15741524;28;20048;-54
2024/01/20 06:35:41;;;;;;;0.10;0.10;;;;;;;0.03;72.90;101917.97;15741803;28;20036;-45
2024/01/20 06:43:16;;;;;;;0.00;0.00;;;;;;;-0.18;72.98;101919.56;15741063;28;20070;-47
2024/01/20 06:50:49;;;;;;;0.55;0.55;;;;;;;-0.42;74.74;101932.69;15739675;28;20064;-47
2024/01/20 06:58:25;;;;;;;0.20;0.20;;;;;;;-0.05;73.59;101938.81;15746531;28;20052;-49
2024/01/20 07:06:00;;;;;;;0.55;0.45;;;;;;;0.19;72.69;101952.88;15793274;22;20106;-50
2024/01/20 07:13:35;;;;;;;0.10;0.10;;;;;;;0.25;73.01;101952.41;15750229;28;20063;-50
2024/01/20 07:21:10;;;;;;;0.00;0.00;;;;;;;0.23;73.54;101958.75;15724962;28;20448;-49
2024/01/20 07:28:45;;;;;;;0.00;0.00;;;;;;;0.33;72.79;101951.84;15738020;28;20045;-51
2024/01/20 07:36:18;;;;;;;0.00;0.00;;;;;;;0.43;72.14;101959.94;15722027;28;20064;-50
2024/01/20 07:43:54;;;;;;;0.08;0.08;;;;;;;0.43;72.05;101958.13;15723776;28;20048;-49
2024/01/20 07:51:28;;;;;;;0.20;0.20;;;;;;;0.29;72.42;101968.88;15732076;28;20055;-51
2024/01/20 07:59:03;;;;;;;0.00;0.00;;;;;;;0.25;72.36;101986.72;15735889;28;20416;-50
2024/01/20 08:06:37;;;;;;;0.00;0.00;;;;;;;0.35;72.65;101993.97;15724856;28;20045;-49
2024/01/20 08:14:12;;;;;;;0.10;0.10;;;;;;;0.56;71.33;101997.69;15702332;28;20049;-53
2024/01/20 08:21:46;;;;;;;1.80;1.70;;;;;;;0.70;71.73;101992.22;15706557;28;20049;-49
2024/01/20 08:29:22;;;;;;;1.15;0.32;;;;;;;0.94;71.36;101992.16;15712014;28;20084;-51
2024/01/20 08:36:56;;;;;;;0.10;0.10;;;;;;;1.39;69.91;102000.13;15678710;28;20037;-53
2024/01/20 08:44:32;;;;;;;;;;;;;;;1.18;70.88;102004.44;15671573;28;20128;-49
2024/01/20 08:52:06;;;;;;;0.08;0.08;;;;;;;1.50;68.81;102010.72;15669157;28;19956;-55
2024/01/20 08:59:41;;;;;;;0.20;0.20;;;;;;;1.62;69.38;102016.00;15696423;28;20086;-53
2024/01/20 09:07:15;;;;;;;0.13;0.10;;;;;;;1.47;69.47;102028.66;15675980;28;20041;-52
2024/01/20 09:14:50;;;;;;;0.00;0.00;;;;;;;1.34;70.49;102049.06;15673278;28;20068;-48
2024/01/20 09:22:24;;;;;;;0.20;0.20;;;;;;;1.30;70.43;102059.03;15654881;28;20124;-49
2024/01/20 09:29:59;;;;;;;0.00;0.00;;;;;;;1.46;70.14;102056.06;15667756;28;20052;-50
2024/01/20 09:37:32;;;;;;;0.63;0.63;;;;;;;1.35;70.31;102075.38;15644246;28;20056;-45
2024/01/20 09:45:09;;;;;;;0.10;0.10;;;;;;;1.38;70.12;102079.63;15673451;28;20030;-49
2024/01/20 09:52:54;;;;;;;9.05;3.40;;;;;;;1.84;67.38;102081.34;15656561;28;20073;-48
2024/01/20 10:00:29;;;;;;;0.00;0.00;;;;;;;2.81;64.06;102083.22;15660569;28;20045;-52
2024/01/20 10:08:04;;;;;;;0.00;0.00;;;;;;;2.98;64.04;102081.81;15690092;28;20513;-51
2024/01/20 10:15:39;;;;;;;0.20;0.20;;;;;;;2.87;62.54;102072.09;15734550;28;20404;-48
2024/01/20 10:23:13;;;;;;;0.08;0.08;;;;;;;3.24;61.73;102083.13;15737168;28;20519;-50
2024/01/20 10:30:47;;;;;;;0.20;0.20;;;;;;;3.11;62.08;102100.19;15743372;28;20090;-55
2024/01/20 10:38:21;;;;;;;0.38;0.38;;;;;;;2.39;64.09;102090.22;15726343;28;20451;-51
2024/01/20 10:46:01;;;;;;;0.22;0.20;;;;;;;2.93;62.41;102095.44;15735984;28;20480;-51
2024/01/20 10:53:36;;;;;;;0.20;0.20;;;;;;;3.36;60.75;102091.00;15737630;28;20080;-49
2024/01/20 11:01:12;;;;;;;0.15;0.15;;;;;;;2.89;62.81;102094.03;15722483;28;20040;-53
2024/01/20 11:08:50;;;;;;;0.10;0.10;;;;;;;2.26;64.51;102122.13;15729156;28;20072;-51
2024/01/20 11:16:25;;;;;;;0.47;0.47;;;;;;;2.16;66.15;102115.88;15703818;28;20528;-49
2024/01/20 11:23:59;;;;;;;2.08;1.90;;;;;;;2.70;63.97;102105.28;15712654;28;20051;-48
2024/01/20 11:31:49;;;;;;;0.00;0.00;;;;;;;3.88;60.11;102095.38;15727915;28;20489;-48
2024/01/20 11:39:24;;;;;;;1.20;0.65;;;;;;;4.28;59.06;102099.81;15710757;28;20158;-50
2024/01/20 11:47:00;;;;;;;0.20;0.20;;;;;;;3.38;62.13;102102.34;15721568;28;20120;-52
2024/01/20 11:54:34;;;;;;;0.00;0.00;;;;;;;3.76;60.73;102096.41;15713692;28;20064;-51
2024/01/20 12:02:09;;;;;;;1.75;1.15;;;;;;;4.07;58.94;102091.94;15725625;28;20044;-49
2024/01/20 12:09:45;;;;;;;0.65;0.65;;;;;;;4.70;57.89;102099.63;15702646;28;20170;-49
2024/01/20 12:17:22;;;;;;;0.00;0.00;;;;;;;4.84;58.06;102102.72;15702741;28;20060;-55
2024/01/20 12:24:56;;;;;;;0.00;0.00;;;;;;;4.75;57.08;102105.38;15707137;28;20053;-51
2024/01/20 12:32:31;;;;;;;0.10;0.10;;;;;;;5.05;56.73;102117.72;15712209;28;20063;-56
2024/01/20 12:40:05;;;;;;;0.20;0.20;;;;;;;4.46;58.85;102118.63;15723018;28;20102;-49
2024/01/20 12:47:40;;;;;;;0.00;0.00;;;;;;;4.91;57.22;102105.69;15726822;28;20059;-47
2024/01/20 12:55:14;;;;;;;0.00;0.00;;;;;;;5.03;55.66;102103.69;15735542;28;20051;-51
2024/01/20 13:02:51;;;;;;;2.65;0.80;;;;;;;4.39;56.53;102106.88;15725617;28;20102;-51
2024/01/20 13:10:25;;;;;;;0.00;0.00;;;;;;;4.12;57.53;102100.34;15730898;28;20048;-52
2024/01/20 13:18:01;;;;;;;0.10;0.10;;;;;;;4.16;58.99;102103.59;15702550;28;20049;-54
2024/01/20 13:25:34;;;;;;;0.32;0.32;;;;;;;4.06;59.00;102109.69;15733583;28;20041;-50
2024/01/20 13:33:09;;;;;;;0.10;0.10;;;;;;;3.73;60.32;102108.16;15726235;28;20193;-53
2024/01/20 13:40:42;;;;;;;0.38;0.38;;;;;;;3.57;60.89;102111.25;15721833;28;20083;-52
2024/01/20 13:48:18;;;;;;;0.10;0.10;;;;;;;3.50;61.21;102122.56;15734759;28;20595;-53
2024/01/20 13:55:52;;;;;;;3.38;1.90;;;;;;;3.83;60.68;102122.31;15747871;28;20047;-48
2024/01/20 14:03:27;;;;;;;0.20;0.20;;;;;;;3.55;61.12;102131.81;15745774;28;20044;-50
2024/01/20 14:11:00;;;;;;;0.65;0.65;;;;;;;3.43;62.24;102139.94;15739155;28;20052;-51
2024/01/20 14:18:35;;;;;;;0.00;0.00;;;;;;;3.22;62.59;102147.91;15723699;28;20037;-47
2024/01/20 14:26:10;;;;;;;0.00;0.00;;;;;;;2.53;63.61;102089.94;15744437;28;20044;-52
2024/01/20 14:33:45;;;;;;;0.47;0.10;;;;;;;3.16;63.65;102170.47;15736813;28;20127;-53
2024/01/20 14:41:19;;;;;;;0.40;0.40;;;;;;;3.20;63.93;102182.50;15732605;28;20056;-52
2024/01/20 14:48:54;;;;;;;0.15;0.15;;;;;;;2.98;64.47;102182.59;15730490;28;20087;-49
2024/01/20 14:56:31;;;;;;;0.10;0.10;;;;;;;3.30;63.22;102186.09;15733345;28;20497;-49
2024/01/20 15:04:07;;;;;;;0.10;0.10;;;;;;;2.58;65.52;102191.13;15742375;28;20052;-52
2024/01/20 15:11:40;;;;;;;0.22;0.22;;;;;;;2.74;64.23;102194.22;15741387;28;20048;-49
2024/01/20 15:19:15;;;;;;;;;;;;;;;2.33;64.95;102189.56;15726375;28;20128;-49
2024/01/20 15:26:52;;;;;;;0.28;0.28;;;;;;;2.48;66.04;102240.53;15729339;28;19943;-51
2024/01/20 15:34:27;;;;;;;0.38;0.38;;;;;;;2.75;64.18;102251.59;15741126;28;20059;-52
2024/01/20 15:42:01;;;;;;;0.00;0.00;;;;;;;2.17;66.07;102250.84;15741521;28;20409;-52
2024/01/20 15:49:38;;;;;;;0.30;0.30;;;;;;;2.13;66.19;102253.84;15732467;28;20044;-49
2024/01/20 15:57:12;;;;;;;0.13;0.13;;;;;;;2.19;65.83;102270.13;15732344;28;20045;-51
2024/01/20 16:04:47;;;;;;;0.00;0.00;;;;;;;2.08;65.91;102275.38;15741911;28;20056;-51
2024/01/20 16:12:21;;;;;;;0.00;0.00;;;;;;;2.01;67.01;102287.44;15739355;28;20074;-51
2024/01/20 16:19:57;;;;;;;0.25;0.25;;;;;;;1.70;68.33;102279.13;15740388;28;20097;-52
2024/01/20 16:27:30;;;;;;;0.10;0.10;;;;;;;1.18;68.37;102276.84;15739352;28;20075;-50
2024/01/20 16:35:06;;;;;;;0.10;0.10;;;;;;;0.95;69.78;102292.56;15742529;28;20456;-49
2024/01/20 16:42:39;;;;;;;0.65;0.52;;;;;;;0.93;70.35;102305.06;15719692;28;20048;-50
2024/01/20 16:50:14;;;;;;;0.22;0.22;;;;;;;0.98;69.47;102308.22;15719397;28;20040;-49
2024/01/20 16:57:49;;;;;;;4.38;1.33;;;;;;;1.02;69.51;102322.88;15736835;28;20102;-48
2024/01/20 17:05:24;;;;;;;0.28;0.28;;;;;;;0.90;69.29;102313.19;15734640;28;20068;-49
2024/01/20 17:12:58;;;;;;;0.10;0.10;;;;;;;1.31;68.56;102358.81;15735406;28;20057;-49
2024/01/20 17:20:34;;;;;;;0.00;0.00;;;;;;;1.59;66.33;102363.78;15718701;28;20136;-52
2024/01/20 17:28:10;;;;;;;0.35;0.35;;;;;;;1.31;66.60;102367.59;15746887;28;20048;-50
2024/01/20 17:35:46;;;;;;;0.10;0.10;;;;;;;1.04;67.41;102378.31;15741735;28;20051;-50
2024/01/20 17:43:20;;;;;;;0.10;0.10;;;;;;;0.40;69.37;102391.50;15727318;28;20053;-51
2024/01/20 17:50:55;;;;;;;0.00;0.00;;;;;;;0.48;68.59;102375.16;15747619;28;20040;-50
2024/01/20 17:58:30;;;;;;;0.00;0.00;;;;;;;-0.18;71.95;102376.91;15748755;28;20136;-50
2024/01/20 18:06:04;;;;;;;1.65;0.85;;;;;;;0.04;69.97;102389.53;15747773;28;20079;-49
2024/01/20 18:13:38;;;;;;;0.00;0.00;;;;;;;-0.26;70.42;102406.41;15685007;28;20111;-54
2024/01/20 18:21:14;;;;;;;0.20;0.20;;;;;;;-0.52;71.75;102401.97;15683804;28;20052;-49
2024/01/20 18:28:48;;;;;;;0.00;0.00;;;;;;;0.16;68.62;102412.47;15683227;28;20076;-49
2024/01/20 18:36:24;;;;;;;0.00;0.00;;;;;;;0.02;68.84;102409.06;15680804;28;20049;-48
2024/01/20 18:44:04;;;;;;;0.17;0.17;;;;;;;-0.31;70.16;102418.22;15681691;28;20129;-48
2024/01/20 18:51:39;;;;;;;0.20;0.20;;;;;;;-0.55;70.49;102421.47;15672481;28;20051;-53
2024/01/20 18:59:13;;;;;;;0.28;0.28;;;;;;;-0.73;70.95;102434.97;15681393;28;20041;-49
2024/01/20 19:06:48;;;;;;;0.85;0.85;;;;;;;-0.64;70.32;102450.22;15679064;28;20045;-53
2024/01/20 19:14:22;;;;;;;0.00;0.00;;;;;;;-0.71;70.73;102460.28;15737544;28;20033;-53
2024/01/20 19:21:57;;;;;;;0.03;0.03;;;;;;;-0.93;72.41;102458.13;15722941;28;20037;-53
2024/01/20 19:29:33;;;;;;;0.00;0.00;;;;;;;-0.63;70.55;102465.94;15722749;28;20048;-52
2024/01/20 19:37:10;;;;;;;1.83;1.23;;;;;;;-0.68;70.45;102469.81;15705477;28;20083;-53
2024/01/20 19:44:47;;;;;;;0.10;0.10;;;;;;;-0.82;71.70;102465.38;15727364;28;20040;-52
2024/01/20 19:52:22;;;;;;;0.10;0.10;;;;;;;-1.06;71.80;102475.63;15676921;28;20099;-55
2024/01/20 19:59:56;;;;;;;0.00;0.00;;;;;;;-1.32;72.52;102488.53;15674823;28;20083;-53
2024/01/20 20:07:31;;;;;;;0.10;0.10;;;;;;;-0.90;71.02;102480.81;15727949;28;20041;-58
2024/01/20 20:15:05;;;;;;;0.10;0.10;;;;;;;-0.81;70.68;102490.78;15723234;28;20526;-54
2024/01/20 20:22:40;;;;;;;0.28;0.28;;;;;;;-1.04;70.66;102484.25;15692342;28;20052;-55
2024/01/20 20:30:14;;;;;;;0.00;0.00;;;;;;;-1.07;69.96;102479.19;15720199;28;20572;-53
2024/01/20 20:37:49;;;;;;;0.10;0.10;;;;;;;-0.94;69.30;102484.56;15721820;28;20090;-53
2024/01/20 20:45:25;;;;;;;0.10;0.10;;;;;;;-0.88;68.35;102481.56;15719356;28;20133;-54
2024/01/20 20:53:00;;;;;;;0.00;0.00;;;;;;;-1.51;69.64;102492.34;15673137;28;20715;-53
2024/01/20 21:00:34;;;;;;;0.22;0.22;;;;;;;-1.71;70.49;102496.97;15718276;28;20049;-54
2024/01/20 21:08:09;;;;;;;0.00;0.00;;;;;;;-1.76;69.68;102500.81;15730188;28;20048;-53
2024/01/20 21:15:42;;;;;;;0.10;0.10;;;;;;;-2.02;70.99;102503.09;15694776;28;20425;-52
2024/01/20 21:23:18;;;;;;;0.15;0.15;;;;;;;-1.95;70.42;102488.69;15708554;28;20386;-53
2024/01/20 21:30:53;;;;;;;0.65;0.65;;;;;;;-2.16;70.35;102488.06;15735598;28;20147;-53
2024/01/20 21:38:29;;;;;;;2.17;1.23;;;;;;;-2.44;70.96;102486.09;15699207;28;20052;-53
2024/01/20 21:46:03;;;;;;;0.00;0.00;;;;;;;-2.18;70.88;102492.59;15673389;28;20037;-52
2024/01/20 21:53:39;;;;;;;0.73;0.73;;;;;;;-2.22;71.05;102492.84;15655040;28;20506;-54
2024/01/20 22:01:13;;;;;;;0.10;0.10;;;;;;;-2.42;70.68;102492.16;15671107;28;20445;-52
2024/01/20 22:08:49;;;;;;;0.20;0.20;;;;;;;-2.06;68.19;102486.63;15724195;28;20118;-53
2024/01/20 22:16:24;;;;;;;0.00;0.00;;;;;;;-2.22;68.65;102495.47;15700927;28;20048;-53
2024/01/20 22:24:00;;;;;;;0.00;0.00;;;;;;;-2.54;68.93;102495.41;15680059;28;20049;-51
2024/01/20 22:31:34;;;;;;;0.00;0.00;;;;;;;-2.63;69.48;102488.88;15648198;28;20516;-51
2024/01/20 22:39:09;;;;;;;0.10;0.10;;;;;;;-2.41;67.75;102482.47;15681582;28;20053;-50
2024/01/20 22:46:43;;;;;;;0.38;0.38;;;;;;;-2.64;68.68;102489.81;15663359;28;20041;-53
2024/01/20 22:54:22;;;;;;;0.10;0.10;;;;;;;-2.57;68.00;102499.06;15714393;28;20055;-49
2024/01/20 23:01:55;;;;;;;0.08;0.08;;;;;;;-2.77;67.97;102498.41;15725541;28;20048;-50
2024/01/20 23:09:32;;;;;;;0.00;0.00;;;;;;;-2.72;67.95;102494.63;15731030;28;20075;-49
2024/01/20 23:17:06;;;;;;;0.00;0.00;;;;;;;-3.01;67.88;102490.88;15741645;28;20044;-51
2024/01/20 23:24:41;;;;;;;0.00;0.00;;;;;;;-3.28;68.88;102481.78;15740450;28;20040;-54
2024/01/20 23:32:15;;;;;;;0.10;0.10;;;;;;;-3.05;69.05;102470.13;15743183;28;20402;-49
2024/01/20 23:39:50;;;;;;;0.30;0.30;;;;;;;-3.02;67.60;102475.22;15733327;28;20060;-51
2024/01/20 23:47:23;;;;;;;0.00;0.00;;;;;;;-3.16;67.96;102468.03;15680100;28;20277;-51
2024/01/20 23:54:58;;;;;;;0.10;0.10;;;;;;;-3.00;66.92;102476.81;15677618;28;20051;-53
